createdAt,value
2023-07-08T00:01:16.666Z,9.23
2023-07-08T00:03:46.058Z,8.18
2023-07-08T00:06:19.309Z,7.38
2023-07-08T00:08:48.220Z,9.57
2023-07-08T00:11:18.496Z,9.75
2023-07-08T00:13:48.981Z,13.23
2023-07-08T00:16:20.536Z,11.23
2023-07-08T00:18:50.636Z,8.98
2023-07-08T00:21:20.113Z,13.90
2023-07-08T00:23:50.214Z,7.93
2023-07-08T00:26:25.222Z,9.02
2023-07-08T00:28:56.328Z,11.00
2023-07-08T00:31:27.070Z,12.82
2023-07-08T00:33:58.243Z,10.63
2023-07-08T00:36:29.548Z,11.00
2023-07-08T00:38:59.027Z,11.43
2023-07-08T00:41:33.115Z,9.48
2023-07-08T00:44:03.783Z,11.00
2023-07-08T00:46:48.974Z,12.43
2023-07-08T00:49:33.583Z,11.23
2023-07-08T00:52:25.844Z,14.85
2023-07-08T00:54:57.206Z,13.07
2023-07-08T00:57:30.813Z,13.38
2023-07-08T01:00:06.283Z,11.32
2023-07-08T01:02:44.183Z,10.45
2023-07-08T01:05:16.390Z,16.48
2023-07-08T01:07:47.661Z,11.43
2023-07-08T01:10:20.561Z,10.65
2023-07-08T01:12:53.614Z,12.35
2023-07-08T01:15:25.973Z,11.57
2023-07-08T01:17:57.010Z,13.18
2023-07-08T01:20:25.965Z,13.63
2023-07-08T01:22:56.402Z,12.55
2023-07-08T01:25:25.593Z,11.73
2023-07-08T01:28:00.005Z,11.48
2023-07-08T01:33:04.132Z,11.40
2023-07-08T01:35:33.100Z,12.87
2023-07-08T01:38:07.411Z,11.50
2023-07-08T01:40:38.489Z,9.93
2023-07-08T01:43:09.998Z,13.55
2023-07-08T01:45:42.146Z,14.02
2023-07-08T01:48:13.870Z,12.57
2023-07-08T01:50:47.662Z,12.55
2023-07-08T01:53:21.721Z,11.63
2023-07-08T01:55:50.769Z,14.52
2023-07-08T01:58:20.660Z,9.65
2023-07-08T02:00:50.021Z,12.25
2023-07-08T02:03:19.368Z,12.52
2023-07-08T02:05:48.455Z,10.65
2023-07-08T02:08:18.689Z,10.10
2023-07-08T02:10:55.291Z,8.93
2023-07-08T02:13:24.937Z,11.23
2023-07-08T02:15:54.084Z,9.07
2023-07-08T02:18:24.867Z,11.02
2023-07-08T02:20:53.892Z,13.48
2023-07-08T02:23:24.426Z,11.30
2023-07-08T02:25:53.988Z,16.40
2023-07-08T02:28:23.170Z,11.65
2023-07-08T02:30:52.098Z,12.05
2023-07-08T02:33:28.847Z,9.68
2023-07-08T02:35:57.823Z,11.65
2023-07-08T02:38:28.967Z,12.60
2023-07-08T02:40:58.603Z,13.13
2023-07-08T02:43:28.044Z,14.30
2023-07-08T02:45:56.984Z,12.80
2023-07-08T02:48:25.959Z,14.70
2023-07-08T02:51:02.191Z,10.82
2023-07-08T02:53:33.361Z,12.30
2023-07-08T02:56:02.290Z,13.00
2023-07-08T02:58:31.507Z,13.68
2023-07-08T03:01:02.760Z,13.07
2023-07-08T03:03:32.162Z,11.68
2023-07-08T03:06:03.952Z,15.70
2023-07-08T03:08:34.464Z,13.30
2023-07-08T03:11:05.575Z,11.50
2023-07-08T03:13:35.454Z,11.70
2023-07-08T03:16:14.110Z,13.00
2023-07-08T03:18:48.234Z,11.95
2023-07-08T03:21:20.018Z,12.82
2023-07-08T03:23:51.658Z,20.05
2023-07-08T03:26:23.463Z,14.18
2023-07-08T03:28:54.314Z,13.55
2023-07-08T03:31:23.430Z,15.25
2023-07-08T03:33:53.600Z,13.95
2023-07-08T03:36:26.965Z,13.88
2023-07-08T03:38:58.971Z,15.35
2023-07-08T03:41:28.486Z,15.82
2023-07-08T03:43:57.734Z,17.27
2023-07-08T03:46:26.852Z,15.45
2023-07-08T03:48:55.836Z,15.98
2023-07-08T03:51:27.737Z,16.55
2023-07-08T03:53:58.778Z,14.25
2023-07-08T03:56:28.102Z,15.55
2023-07-08T03:58:58.215Z,14.73
2023-07-08T04:01:27.756Z,18.17
2023-07-08T04:03:59.812Z,17.17
2023-07-08T04:06:30.888Z,17.70
2023-07-08T04:09:02.027Z,16.38
2023-07-08T04:11:31.166Z,14.10
2023-07-08T04:14:00.073Z,16.50
2023-07-08T04:16:32.059Z,13.10
2023-07-08T04:19:00.886Z,15.60
2023-07-08T04:21:31.426Z,15.18
2023-07-08T04:24:02.095Z,16.02
2023-07-08T04:26:31.036Z,20.58
2023-07-08T04:28:59.881Z,19.40
2023-07-08T04:31:29.807Z,16.77
2023-07-08T04:33:58.793Z,17.95
2023-07-08T04:36:27.967Z,18.30
2023-07-08T04:38:58.997Z,19.90
2023-07-08T04:41:29.273Z,15.55
2023-07-08T04:43:58.466Z,13.45
2023-07-08T04:46:36.070Z,15.43
2023-07-08T04:49:06.942Z,16.60
2023-07-08T04:51:35.832Z,14.48
2023-07-08T04:54:05.336Z,17.95
2023-07-08T04:56:40.555Z,16.90
2023-07-08T05:01:39.970Z,15.48
2023-07-08T05:04:09.819Z,14.77
2023-07-08T05:06:39.237Z,12.95
2023-07-08T05:09:08.997Z,6.82
2023-07-08T05:11:39.383Z,7.25
2023-07-08T05:14:08.744Z,6.07
2023-07-08T05:16:37.963Z,6.72
2023-07-08T05:19:07.060Z,10.60
2023-07-08T05:21:36.132Z,8.32
2023-07-08T05:24:06.514Z,5.10
2023-07-08T05:26:35.502Z,4.72
2023-07-08T05:29:06.328Z,3.38
2023-07-08T05:34:07.957Z,5.43
2023-07-08T05:36:36.947Z,5.07
2023-07-08T05:39:06.696Z,2.83
2023-07-08T05:41:35.787Z,3.47
2023-07-08T05:44:06.321Z,3.13
2023-07-08T05:46:35.256Z,4.05
2023-07-08T05:49:04.209Z,4.43
2023-07-08T05:51:33.008Z,3.13
2023-07-08T05:54:02.075Z,3.83
2023-07-08T05:56:31.862Z,3.42
2023-07-08T05:59:00.740Z,4.40
2023-07-08T06:01:31.430Z,3.25
2023-07-08T06:04:00.747Z,6.85
2023-07-08T06:06:30.595Z,5.47
2023-07-08T06:08:59.635Z,3.60
2023-07-08T06:11:28.987Z,4.63
2023-07-08T06:13:59.289Z,4.40
2023-07-08T06:16:39.796Z,4.85
2023-07-08T06:19:11.576Z,4.35
2023-07-08T06:21:40.545Z,4.10
2023-07-08T06:24:09.680Z,4.68
2023-07-08T06:26:38.575Z,2.72
2023-07-08T06:29:07.829Z,3.88
2023-07-08T06:31:36.708Z,3.75
2023-07-08T06:34:05.663Z,4.55
2023-07-08T06:36:36.351Z,5.00
2023-07-08T06:39:08.336Z,5.82
2023-07-08T06:41:37.208Z,4.32
2023-07-08T06:44:06.535Z,7.55
2023-07-08T06:46:36.402Z,5.60
2023-07-08T06:49:09.747Z,5.50
2023-07-08T06:51:41.525Z,10.88
2023-07-08T06:54:13.226Z,5.35
2023-07-08T06:56:42.867Z,6.28
2023-07-08T06:59:11.940Z,7.57
2023-07-08T07:01:40.845Z,6.10
2023-07-08T07:04:09.731Z,4.38
2023-07-08T07:06:40.081Z,4.40
2023-07-08T07:09:09.021Z,4.85
2023-07-08T07:11:37.961Z,2.45
2023-07-08T07:14:46.862Z,4.00
2023-07-08T07:17:07.306Z,3.95
2023-07-08T07:19:37.794Z,3.72
2023-07-08T07:22:08.765Z,3.38
2023-07-08T07:24:37.651Z,3.88
2023-07-08T07:27:06.920Z,3.67
2023-07-08T07:29:43.131Z,5.72
2023-07-08T07:32:12.724Z,5.72
2023-07-08T07:34:41.976Z,4.05
2023-07-08T07:37:14.449Z,3.58
2023-07-08T07:39:43.912Z,3.67
2023-07-08T07:42:15.679Z,3.08
2023-07-08T07:44:46.576Z,2.95
2023-07-08T07:47:15.678Z,3.83
2023-07-08T07:49:44.541Z,3.80
2023-07-08T07:52:14.783Z,8.15
2023-07-08T07:54:43.651Z,2.88
2023-07-08T07:57:12.559Z,7.13
2023-07-08T07:59:41.376Z,5.32
2023-07-08T08:02:10.519Z,2.40
2023-07-08T08:04:39.667Z,6.72
2023-07-08T08:07:08.847Z,3.60
2023-07-08T08:09:39.630Z,4.40
2023-07-08T08:12:10.733Z,3.88
2023-07-08T08:14:39.930Z,4.65
2023-07-08T08:17:08.925Z,3.70
2023-07-08T08:19:38.050Z,3.72
2023-07-08T08:22:07.022Z,4.18
2023-07-08T08:24:36.169Z,4.45
2023-07-08T08:27:06.908Z,2.75
2023-07-08T08:29:36.086Z,3.45
2023-07-08T08:32:05.420Z,4.85
2023-07-08T08:34:34.334Z,5.03
2023-07-08T08:37:03.473Z,3.10
2023-07-08T08:39:32.347Z,3.83
2023-07-08T08:42:03.576Z,4.45
2023-07-08T08:44:37.627Z,8.68
2023-07-08T08:47:19.942Z,5.03
2023-07-08T08:49:56.731Z,2.40
2023-07-08T08:52:25.768Z,5.15
2023-07-08T08:54:54.700Z,5.57
2023-07-08T08:57:35.750Z,5.07
2023-07-08T09:00:06.922Z,3.92
2023-07-08T09:02:42.055Z,3.35
2023-07-08T09:07:48.856Z,8.32
2023-07-08T09:10:27.485Z,3.25
2023-07-08T09:12:57.943Z,2.53
2023-07-08T09:15:29.192Z,2.33
2023-07-08T09:18:05.647Z,3.83
2023-07-08T09:20:36.396Z,3.58
2023-07-08T09:23:17.841Z,2.92
2023-07-08T09:25:54.592Z,4.13
2023-07-08T09:28:23.544Z,6.40
2023-07-08T09:30:56.002Z,7.85
2023-07-08T09:33:26.799Z,5.05
2023-07-08T09:35:55.774Z,3.22
2023-07-08T09:38:25.234Z,4.82
2023-07-08T09:40:57.398Z,2.83
2023-07-08T09:43:31.386Z,2.42
2023-07-08T09:46:02.198Z,3.20
2023-07-08T09:48:35.775Z,2.88
2023-07-08T09:51:06.050Z,2.97
2023-07-08T09:53:36.276Z,3.47
2023-07-08T09:56:06.572Z,4.45
2023-07-08T09:58:39.421Z,3.33
2023-07-08T10:01:15.543Z,3.08
2023-07-08T10:03:44.806Z,3.63
2023-07-08T10:06:19.984Z,4.03
2023-07-08T10:11:27.290Z,4.57
2023-07-08T10:16:36.329Z,5.82
2023-07-08T10:19:14.172Z,3.75
2023-07-08T10:21:53.758Z,4.80
2023-07-08T10:24:33.082Z,2.90
2023-07-08T10:27:11.252Z,3.70
2023-07-08T10:29:49.917Z,2.60
2023-07-08T10:32:31.653Z,3.45
2023-07-08T10:35:07.138Z,2.95
2023-07-08T10:37:46.307Z,3.72
2023-07-08T10:40:27.212Z,3.08
2023-07-08T10:43:12.209Z,3.58
2023-07-08T10:45:52.543Z,1.45
2023-07-08T10:48:40.681Z,3.00
2023-07-08T10:51:21.353Z,3.83
2023-07-08T10:54:06.037Z,2.90
2023-07-08T10:56:40.276Z,5.35
2023-07-08T10:59:23.257Z,2.95
2023-07-08T11:02:10.578Z,2.92
2023-07-08T11:04:54.013Z,4.85
2023-07-08T11:07:35.216Z,2.95
2023-07-08T11:10:09.564Z,3.60
2023-07-08T11:12:42.748Z,4.13
2023-07-08T11:15:20.660Z,2.72
2023-07-08T11:17:55.210Z,3.15
2023-07-08T11:20:30.218Z,3.83
2023-07-08T11:23:07.752Z,2.83
2023-07-08T11:25:37.769Z,2.22
2023-07-08T11:28:12.214Z,3.13
2023-07-08T11:30:43.392Z,4.03
2023-07-08T11:33:15.769Z,2.78
2023-07-08T11:35:48.621Z,4.80
2023-07-08T11:38:20.003Z,2.88
2023-07-08T11:40:54.732Z,2.90
2023-07-08T11:43:25.809Z,3.17
2023-07-08T11:45:58.926Z,3.47
2023-07-08T11:48:31.465Z,4.75
2023-07-08T11:51:06.816Z,2.95
2023-07-08T11:53:43.149Z,2.88
2023-07-08T11:56:24.428Z,3.28
2023-07-08T11:59:00.711Z,3.88
2023-07-08T12:01:34.535Z,3.03
2023-07-08T12:04:19.176Z,3.85
2023-07-08T12:07:03.806Z,4.57
2023-07-08T12:09:40.085Z,3.07
2023-07-08T12:12:20.238Z,5.65
2023-07-08T12:14:49.516Z,3.17
2023-07-08T12:17:18.611Z,4.03
2023-07-08T12:19:50.124Z,1.88
2023-07-08T12:22:20.703Z,2.38
2023-07-08T12:24:49.600Z,2.97
2023-07-08T12:27:20.423Z,2.40
2023-07-08T12:29:50.368Z,7.82
2023-07-08T12:32:20.560Z,5.55
2023-07-08T12:34:49.678Z,2.97
2023-07-08T12:37:18.560Z,5.00
2023-07-08T12:39:57.406Z,3.40
2023-07-08T12:42:26.294Z,4.63
2023-07-08T12:44:55.152Z,3.53
2023-07-08T12:47:25.122Z,2.45
2023-07-08T12:49:54.954Z,2.40
2023-07-08T12:52:25.085Z,4.43
2023-07-08T12:54:55.358Z,3.08
2023-07-08T12:57:25.313Z,2.47
2023-07-08T12:59:54.332Z,3.08
2023-07-08T13:02:24.688Z,6.25
2023-07-08T13:05:02.346Z,2.65
2023-07-08T13:07:37.961Z,3.25
2023-07-08T13:10:17.563Z,2.10
2023-07-08T13:12:47.671Z,3.47
2023-07-08T13:15:22.135Z,2.83
2023-07-08T13:17:51.362Z,4.10
2023-07-08T13:20:22.265Z,3.05
2023-07-08T13:22:57.236Z,1.85
2023-07-08T13:25:31.383Z,3.00
2023-07-08T13:28:02.263Z,2.97
2023-07-08T13:30:33.176Z,2.85
2023-07-08T13:33:02.605Z,3.35
2023-07-08T13:35:38.991Z,4.10
2023-07-08T13:38:08.157Z,4.00
2023-07-08T13:40:38.833Z,2.72
2023-07-08T13:43:07.798Z,2.78
2023-07-08T13:45:37.264Z,3.03
2023-07-08T13:48:14.881Z,3.05
2023-07-08T13:50:49.587Z,3.17
2023-07-08T13:53:21.797Z,3.38
2023-07-08T13:56:00.422Z,2.88
2023-07-08T13:58:31.736Z,4.03
2023-07-08T14:01:01.320Z,3.17
2023-07-08T14:03:30.629Z,2.97
2023-07-08T14:05:59.581Z,2.88
2023-07-08T14:08:28.427Z,2.33
2023-07-08T14:10:59.228Z,3.53
2023-07-08T14:13:29.157Z,2.90
2023-07-08T14:15:58.150Z,3.47
2023-07-08T14:18:27.132Z,3.95
2023-07-08T14:20:56.313Z,3.97
2023-07-08T14:23:25.440Z,2.63
2023-07-08T14:25:54.353Z,3.47
2023-07-08T14:28:24.595Z,2.45
2023-07-08T14:30:53.498Z,1.85
2023-07-08T14:33:22.336Z,1.92
2023-07-08T14:35:51.318Z,1.58
2023-07-08T14:38:20.338Z,2.78
2023-07-08T14:40:49.356Z,1.73
2023-07-08T14:43:20.880Z,1.98
2023-07-08T14:45:54.096Z,2.58
2023-07-08T14:48:24.924Z,1.42
2023-07-08T14:50:55.738Z,1.85
2023-07-08T14:53:25.159Z,1.33
2023-07-08T14:55:56.675Z,1.20
2023-07-08T14:58:28.598Z,2.05
2023-07-08T15:01:00.670Z,2.42
2023-07-08T15:03:29.874Z,2.03
2023-07-08T15:05:58.807Z,1.95
2023-07-08T15:08:28.969Z,2.65
2023-07-08T15:10:59.386Z,1.63
2023-07-08T15:13:32.226Z,2.00
2023-07-08T15:16:03.314Z,1.27
2023-07-08T15:18:32.398Z,2.80
2023-07-08T15:21:02.437Z,2.15
2023-07-08T15:23:31.623Z,2.40
2023-07-08T15:26:00.620Z,4.07
2023-07-08T15:28:48.578Z,4.13
2023-07-08T15:31:25.378Z,3.47
2023-07-08T15:33:54.898Z,3.40
2023-07-08T15:36:23.929Z,2.72
2023-07-08T15:38:52.972Z,8.70
2023-07-08T15:41:23.915Z,2.20
2023-07-08T15:43:55.849Z,3.05
2023-07-08T15:46:32.630Z,2.83
2023-07-08T15:49:02.018Z,3.20
2023-07-08T15:51:30.947Z,2.92
2023-07-08T15:53:59.806Z,4.85
2023-07-08T15:56:28.700Z,2.20
2023-07-08T15:58:57.617Z,4.40
2023-07-08T16:01:29.530Z,3.40
2023-07-08T16:03:58.494Z,1.85
2023-07-08T16:06:28.848Z,3.38
2023-07-08T16:08:57.738Z,3.45
2023-07-08T16:11:31.293Z,3.28
2023-07-08T16:14:01.227Z,5.10
2023-07-08T16:16:31.625Z,5.13
2023-07-08T16:19:00.549Z,5.63
2023-07-08T16:21:29.449Z,2.63
2023-07-08T16:23:58.822Z,2.72
2023-07-08T16:26:28.033Z,3.67
2023-07-08T16:28:57.271Z,3.17
2023-07-08T16:31:28.151Z,2.65
2023-07-08T16:33:58.805Z,5.13
2023-07-08T16:36:29.407Z,2.60
2023-07-08T16:39:03.007Z,4.70
2023-07-08T16:41:36.673Z,2.75
2023-07-08T16:44:14.183Z,2.67
2023-07-08T16:46:43.173Z,6.88
2023-07-08T16:49:13.846Z,3.72
2023-07-08T16:51:43.039Z,2.67
2023-07-08T16:54:14.021Z,3.17
2023-07-08T16:56:43.412Z,2.50
2023-07-08T16:59:13.904Z,2.30
2023-07-08T17:01:43.096Z,3.70
2023-07-08T17:04:15.247Z,4.63
2023-07-08T17:06:44.128Z,2.88
2023-07-08T17:09:14.061Z,5.65
2023-07-08T17:11:43.151Z,4.40
2023-07-08T17:14:13.299Z,3.83
2023-07-08T17:16:42.446Z,3.92
2023-07-08T17:19:13.312Z,5.60
2023-07-08T17:21:42.881Z,5.40
2023-07-08T17:24:13.184Z,6.15
2023-07-08T17:26:42.253Z,5.43
2023-07-08T17:29:11.608Z,3.85
2023-07-08T17:31:48.013Z,4.78
2023-07-08T17:34:23.268Z,4.10
2023-07-08T17:36:53.500Z,2.72
2023-07-08T17:39:22.993Z,4.78
2023-07-08T17:41:54.260Z,4.97
2023-07-08T17:44:24.534Z,5.82
2023-07-08T17:46:53.667Z,4.15
2023-07-08T17:49:23.884Z,3.70
2023-07-08T17:51:54.036Z,3.70
2023-07-08T17:54:23.118Z,4.82
2023-07-08T17:56:53.109Z,4.45
2023-07-08T17:59:23.638Z,3.88
2023-07-08T18:01:52.953Z,5.20
2023-07-08T18:04:23.345Z,6.60
2023-07-08T18:06:53.930Z,3.45
2023-07-08T18:09:22.808Z,6.88
2023-07-08T18:11:51.720Z,5.35
2023-07-08T18:14:20.662Z,5.00
2023-07-08T18:16:51.096Z,3.78
2023-07-08T18:19:20.170Z,6.45
2023-07-08T18:21:50.858Z,4.43
2023-07-08T18:24:19.750Z,4.03
2023-07-08T18:26:48.651Z,4.25
2023-07-08T18:29:19.564Z,5.50
2023-07-08T18:31:49.373Z,3.60
2023-07-08T18:34:19.587Z,4.82
2023-07-08T18:36:48.479Z,5.32
2023-07-08T18:39:19.336Z,5.22
2023-07-08T18:41:49.885Z,4.63
2023-07-08T18:44:26.921Z,6.50
2023-07-08T18:46:56.089Z,5.45
2023-07-08T18:49:27.150Z,6.13
2023-07-08T18:51:56.498Z,5.93
2023-07-08T18:54:26.777Z,5.60
2023-07-08T18:56:55.660Z,5.15
2023-07-08T18:59:25.459Z,5.90
2023-07-08T19:01:54.506Z,4.50
2023-07-08T19:04:26.559Z,6.22
2023-07-08T19:06:58.371Z,5.85
2023-07-08T19:09:34.850Z,5.57
2023-07-08T19:12:03.896Z,4.10
2023-07-08T19:14:32.804Z,4.65
2023-07-08T19:17:02.125Z,6.47
2023-07-08T19:19:30.998Z,4.93
2023-07-08T19:22:02.077Z,5.57
2023-07-08T19:24:38.304Z,5.88
2023-07-08T19:27:16.421Z,4.65
2023-07-08T19:29:46.115Z,6.35
2023-07-08T19:32:18.848Z,5.40
2023-07-08T19:34:49.551Z,5.90
2023-07-08T19:37:19.985Z,6.30
2023-07-08T19:39:52.357Z,5.60
2023-07-08T19:42:26.740Z,4.35
2023-07-08T19:44:55.716Z,4.80
2023-07-08T19:47:24.776Z,4.93
2023-07-08T19:49:53.612Z,4.50
2023-07-08T19:52:22.537Z,6.18
2023-07-08T19:54:53.635Z,4.80
2023-07-08T19:57:22.933Z,4.93
2023-07-08T19:59:51.740Z,6.53
2023-07-08T20:02:21.039Z,4.53
2023-07-08T20:04:50.111Z,4.68
2023-07-08T20:07:19.081Z,5.72
2023-07-08T20:09:47.941Z,4.82
2023-07-08T20:12:18.187Z,4.57
2023-07-08T20:14:47.134Z,7.28
2023-07-08T20:17:16.792Z,4.72
2023-07-08T20:19:45.808Z,6.07
2023-07-08T20:22:15.888Z,4.82
2023-07-08T20:24:45.078Z,4.40
2023-07-08T20:27:14.096Z,4.47
2023-07-08T20:29:44.359Z,5.88
2023-07-08T20:32:16.165Z,4.68
2023-07-08T20:34:45.084Z,4.20
2023-07-08T20:37:15.564Z,3.28
2023-07-08T20:39:44.653Z,4.43
2023-07-08T20:42:14.805Z,3.25
2023-07-08T20:44:45.035Z,3.60
2023-07-08T20:47:17.058Z,4.25
2023-07-08T20:49:45.885Z,3.67
2023-07-08T20:52:16.135Z,4.30
2023-07-08T20:54:48.244Z,3.55
2023-07-08T20:57:18.927Z,4.15
2023-07-08T20:59:49.892Z,3.47
2023-07-08T21:02:26.684Z,4.55
2023-07-08T21:04:55.596Z,3.95
2023-07-08T21:07:24.634Z,3.70
2023-07-08T21:09:53.488Z,3.90
2023-07-08T21:12:22.454Z,5.68
2023-07-08T21:14:53.275Z,3.40
2023-07-08T21:17:22.443Z,3.35
2023-07-08T21:19:51.473Z,3.95
2023-07-08T21:22:20.413Z,5.97
2023-07-08T21:24:49.525Z,4.85
2023-07-08T21:27:24.312Z,4.70
2023-07-08T21:29:54.590Z,4.13
2023-07-08T21:32:23.563Z,3.83
2023-07-08T21:34:52.377Z,4.82
2023-07-08T21:37:21.843Z,4.38
2023-07-08T21:39:50.754Z,2.72
2023-07-08T21:42:19.606Z,3.65
2023-07-08T21:44:48.471Z,4.18
2023-07-08T21:47:18.771Z,7.20
2023-07-08T21:49:47.714Z,5.95
2023-07-08T21:52:16.556Z,4.55
2023-07-08T21:54:45.401Z,3.72
2023-07-08T21:57:16.110Z,5.18
2023-07-08T21:59:45.112Z,3.92
2023-07-08T22:02:15.360Z,4.85
2023-07-08T22:04:45.681Z,4.85
2023-07-08T22:07:17.079Z,3.22
2023-07-08T22:09:46.174Z,3.15
2023-07-08T22:12:15.451Z,6.20
2023-07-08T22:14:44.336Z,3.70
2023-07-08T22:17:17.994Z,3.72
2023-07-08T22:19:48.350Z,6.15
2023-07-08T22:22:23.907Z,4.63
2023-07-08T22:24:52.841Z,4.10
2023-07-08T22:27:21.892Z,5.13
2023-07-08T22:29:51.507Z,9.45
2023-07-08T22:32:20.522Z,6.95
2023-07-08T22:34:50.834Z,3.45
2023-07-08T22:37:19.703Z,4.40
2023-07-08T22:39:48.515Z,5.63
2023-07-08T22:42:18.330Z,6.70
2023-07-08T22:44:47.310Z,4.07
2023-07-08T22:47:16.837Z,4.05
2023-07-08T22:49:45.802Z,5.80
2023-07-08T22:52:23.153Z,3.63
2023-07-08T22:54:52.065Z,4.53
2023-07-08T22:57:20.903Z,3.03
2023-07-08T22:59:49.820Z,2.55
2023-07-08T23:02:18.873Z,3.22
2023-07-08T23:04:47.905Z,3.78
2023-07-08T23:07:20.749Z,3.78
2023-07-08T23:09:49.688Z,6.22
2023-07-08T23:12:18.506Z,3.30
2023-07-08T23:14:47.394Z,5.43
2023-07-08T23:17:16.302Z,3.75
2023-07-08T23:19:45.201Z,5.03
2023-07-08T23:22:22.920Z,3.65
2023-07-08T23:24:51.854Z,6.35
2023-07-08T23:27:25.672Z,6.50
2023-07-08T23:29:54.643Z,4.95
2023-07-08T23:32:23.545Z,7.97
2023-07-08T23:34:52.476Z,6.30
2023-07-08T23:37:30.179Z,4.18
2023-07-08T23:39:59.266Z,3.85
2023-07-08T23:42:28.180Z,3.83
2023-07-08T23:44:57.291Z,4.45
2023-07-08T23:47:28.579Z,7.93
2023-07-08T23:49:58.176Z,6.22
2023-07-08T23:52:28.549Z,5.40
2023-07-08T23:54:57.618Z,5.85
2023-07-08T23:57:26.465Z,4.43
2023-07-08T23:59:57.165Z,3.63
